sensor_id;sensor_type;location;lat;lon;timestamp;P1;durP1;ratioP1;P2;durP2;ratioP2
12459;SDS011;6295;49.452;8.466;2024-02-14T12:14:23;2.43;;;1.90;;
12459;SDS011;6295;49.452;8.466;2024-02-14T12:18:28;3.60;;;1.77;;
12459;SDS011;6295;49.452;8.466;2024-02-14T12:22:30;2.17;;;1.70;;
12459;SDS011;6295;49.452;8.466;2024-02-14T12:26:35;1.73;;;1.60;;
12459;SDS011;6295;49.452;8.466;2024-02-14T12:30:44;1.63;;;1.40;;
12459;SDS011;6295;49.452;8.466;2024-02-14T12:34:55;2.37;;;1.60;;
12459;SDS011;6295;49.452;8.466;2024-02-14T12:39:00;2.37;;;1.57;;
12459;SDS011;6295;49.452;8.466;2024-02-14T12:43:04;1.80;;;1.50;;
12459;SDS011;6295;49.452;8.466;2024-02-14T12:47:10;2.23;;;1.57;;
12459;SDS011;6295;49.452;8.466;2024-02-14T12:51:15;2.33;;;1.33;;
12459;SDS011;6295;49.452;8.466;2024-02-14T12:55:20;2.53;;;1.40;;
12459;SDS011;6295;49.452;8.466;2024-02-14T12:59:23;1.93;;;1.30;;
12459;SDS011;6295;49.452;8.466;2024-02-14T13:03:29;1.50;;;1.30;;
12459;SDS011;6295;49.452;8.466;2024-02-14T13:07:34;2.53;;;1.30;;
12459;SDS011;6295;49.452;8.466;2024-02-14T13:11:38;1.73;;;1.30;;
12459;SDS011;6295;49.452;8.466;2024-02-14T13:15:42;1.70;;;1.47;;
12459;SDS011;6295;49.452;8.466;2024-02-14T13:19:46;1.50;;;1.20;;
12459;SDS011;6295;49.452;8.466;2024-02-14T13:23:50;2.13;;;1.27;;
12459;SDS011;6295;49.452;8.466;2024-02-14T13:27:57;1.87;;;1.40;;
12459;SDS011;6295;49.452;8.466;2024-02-14T13:31:59;2.17;;;1.40;;
12459;SDS011;6295;49.452;8.466;2024-02-14T13:36:04;2.30;;;1.40;;
12459;SDS011;6295;49.452;8.466;2024-02-14T13:40:07;1.50;;;1.23;;
12459;SDS011;6295;49.452;8.466;2024-02-14T13:44:10;1.63;;;1.20;;
12459;SDS011;6295;49.452;8.466;2024-02-14T13:48:12;1.73;;;1.13;;
12459;SDS011;6295;49.452;8.466;2024-02-14T13:52:16;1.80;;;1.30;;
12459;SDS011;6295;49.452;8.466;2024-02-14T13:56:19;1.97;;;1.20;;
12459;SDS011;6295;49.452;8.466;2024-02-14T14:00:23;2.10;;;1.40;;
12459;SDS011;6295;49.452;8.466;2024-02-14T14:04:25;2.10;;;1.30;;
12459;SDS011;6295;49.452;8.466;2024-02-14T14:08:28;1.30;;;1.20;;
12459;SDS011;6295;49.452;8.466;2024-02-14T14:12:30;1.30;;;1.20;;
12459;SDS011;6295;49.452;8.466;2024-02-14T14:16:32;1.50;;;1.20;;
12459;SDS011;6295;49.452;8.466;2024-02-14T14:20:35;1.80;;;1.20;;
12459;SDS011;6295;49.452;8.466;2024-02-14T14:24:38;1.80;;;1.33;;
12459;SDS011;6295;49.452;8.466;2024-02-14T14:28:42;1.40;;;1.20;;
12459;SDS011;6295;49.452;8.466;2024-02-14T14:32:46;1.27;;;1.07;;
12459;SDS011;6295;49.452;8.466;2024-02-14T14:36:50;1.23;;;1.10;;
12459;SDS011;6295;49.452;8.466;2024-02-14T14:40:56;1.57;;;1.00;;
12459;SDS011;6295;49.452;8.466;2024-02-14T14:45:00;1.00;;;0.83;;
12459;SDS011;6295;49.452;8.466;2024-02-14T14:49:05;2.10;;;1.23;;
12459;SDS011;6295;49.452;8.466;2024-02-14T14:53:08;1.20;;;1.00;;
12459;SDS011;6295;49.452;8.466;2024-02-14T14:57:12;1.50;;;0.80;;
12459;SDS011;6295;49.452;8.466;2024-02-14T15:01:15;1.10;;;0.90;;
12459;SDS011;6295;49.452;8.466;2024-02-14T15:05:20;1.10;;;0.97;;
12459;SDS011;6295;49.452;8.466;2024-02-14T15:09:24;1.30;;;0.90;;
12459;SDS011;6295;49.452;8.466;2024-02-14T15:13:29;1.80;;;1.10;;
12459;SDS011;6295;49.452;8.466;2024-02-14T15:17:31;1.40;;;0.93;;
12459;SDS011;6295;49.452;8.466;2024-02-14T15:21:35;1.17;;;1.00;;
12459;SDS011;6295;49.452;8.466;2024-02-14T15:25:37;1.17;;;1.07;;
12459;SDS011;6295;49.452;8.466;2024-02-14T15:29:40;0.90;;;0.90;;
12459;SDS011;6295;49.452;8.466;2024-02-14T15:34:00;2.17;;;1.07;;
12459;SDS011;6295;49.452;8.466;2024-02-14T15:38:04;1.10;;;1.00;;
12459;SDS011;6295;49.452;8.466;2024-02-14T15:42:06;0.90;;;0.90;;
12459;SDS011;6295;49.452;8.466;2024-02-14T15:46:11;1.07;;;0.97;;
12459;SDS011;6295;49.452;8.466;2024-02-14T15:50:14;1.00;;;0.90;;
12459;SDS011;6295;49.452;8.466;2024-02-14T15:54:16;1.10;;;1.00;;
